sensor_id;sensor_type;location;lat;lon;timestamp;P1;durP1;ratioP1;P2;durP2;ratioP2
17197;SDS011;8715;51.010;6.812;2023-09-08T00:02:43;931.40;;;863.40;;
17197;SDS011;8715;51.010;6.812;2023-09-08T00:05:30;924.10;;;856.67;;
17197;SDS011;8715;51.010;6.812;2023-09-08T00:08:15;924.33;;;856.78;;
17197;SDS011;8715;51.010;6.812;2023-09-08T00:11:00;927.95;;;860.15;;
17197;SDS011;8715;51.010;6.812;2023-09-08T00:13:46;924.22;;;857.00;;
17197;SDS011;8715;51.010;6.812;2023-09-08T00:16:31;922.97;;;855.88;;
17197;SDS011;8715;51.010;6.812;2023-09-08T00:19:16;926.25;;;858.75;;
17197;SDS011;8715;51.010;6.812;2023-09-08T00:22:03;923.50;;;856.17;;
17197;SDS011;8715;51.010;6.812;2023-09-08T00:24:50;922.60;;;855.33;;
17197;SDS011;8715;51.010;6.812;2023-09-08T00:27:36;924.13;;;856.83;;
17197;SDS011;8715;51.010;6.812;2023-09-08T00:30:21;923.03;;;855.78;;
17197;SDS011;8715;51.010;6.812;2023-09-08T00:33:06;919.75;;;852.80;;
17197;SDS011;8715;51.010;6.812;2023-09-08T00:35:52;924.88;;;857.38;;
17197;SDS011;8715;51.010;6.812;2023-09-08T00:38:41;925.75;;;858.40;;
17197;SDS011;8715;51.010;6.812;2023-09-08T00:41:27;927.13;;;859.38;;
17197;SDS011;8715;51.010;6.812;2023-09-08T00:44:12;924.88;;;857.05;;
17197;SDS011;8715;51.010;6.812;2023-09-08T00:46:57;930.45;;;862.33;;
17197;SDS011;8715;51.010;6.812;2023-09-08T00:49:43;922.05;;;854.67;;
17197;SDS011;8715;51.010;6.812;2023-09-08T00:52:28;920.47;;;853.45;;
17197;SDS011;8715;51.010;6.812;2023-09-08T00:55:17;924.40;;;856.78;;
17197;SDS011;8715;51.010;6.812;2023-09-08T00:58:03;924.33;;;856.97;;
17197;SDS011;8715;51.010;6.812;2023-09-08T01:00:48;925.50;;;858.05;;
17197;SDS011;8715;51.010;6.812;2023-09-08T01:03:34;926.42;;;858.47;;
17197;SDS011;8715;51.010;6.812;2023-09-08T01:06:19;925.85;;;858.25;;
17197;SDS011;8715;51.010;6.812;2023-09-08T01:09:04;926.25;;;858.78;;
17197;SDS011;8715;51.010;6.812;2023-09-08T01:11:51;923.35;;;855.63;;
17197;SDS011;8715;51.010;6.812;2023-09-08T01:14:39;924.45;;;856.92;;
17197;SDS011;8715;51.010;6.812;2023-09-08T01:17:25;926.15;;;858.63;;
17197;SDS011;8715;51.010;6.812;2023-09-08T01:20:13;927.50;;;859.58;;
17197;SDS011;8715;51.010;6.812;2023-09-08T01:23:01;922.55;;;855.58;;
17197;SDS011;8715;51.010;6.812;2023-09-08T01:25:54;926.28;;;858.70;;
17197;SDS011;8715;51.010;6.812;2023-09-08T01:28:41;927.30;;;859.28;;
17197;SDS011;8715;51.010;6.812;2023-09-08T01:31:26;927.05;;;859.22;;
17197;SDS011;8715;51.010;6.812;2023-09-08T01:34:12;930.00;;;862.45;;
17197;SDS011;8715;51.010;6.812;2023-09-08T01:36:58;924.90;;;856.90;;
17197;SDS011;8715;51.010;6.812;2023-09-08T01:39:46;922.75;;;854.95;;
17197;SDS011;8715;51.010;6.812;2023-09-08T01:42:33;923.15;;;855.22;;
17197;SDS011;8715;51.010;6.812;2023-09-08T01:45:18;926.65;;;858.65;;
17197;SDS011;8715;51.010;6.812;2023-09-08T01:48:03;927.33;;;859.08;;
17197;SDS011;8715;51.010;6.812;2023-09-08T01:50:49;925.67;;;857.58;;
17197;SDS011;8715;51.010;6.812;2023-09-08T01:53:35;928.47;;;860.20;;
17197;SDS011;8715;51.010;6.812;2023-09-08T01:56:20;928.42;;;859.67;;
17197;SDS011;8715;51.010;6.812;2023-09-08T01:59:08;929.65;;;861.00;;
17197;SDS011;8715;51.010;6.812;2023-09-08T02:01:53;929.85;;;861.55;;
17197;SDS011;8715;51.010;6.812;2023-09-08T02:04:39;926.97;;;858.83;;
17197;SDS011;8715;51.010;6.812;2023-09-08T02:07:24;929.35;;;861.03;;
17197;SDS011;8715;51.010;6.812;2023-09-08T02:10:10;923.83;;;856.03;;
17197;SDS011;8715;51.010;6.812;2023-09-08T02:12:55;926.80;;;858.92;;
17197;SDS011;8715;51.010;6.812;2023-09-08T02:15:42;927.08;;;858.83;;
17197;SDS011;8715;51.010;6.812;2023-09-08T02:18:27;929.75;;;861.47;;
17197;SDS011;8715;51.010;6.812;2023-09-08T02:21:13;924.55;;;856.97;;
17197;SDS011;8715;51.010;6.812;2023-09-08T02:23:58;926.90;;;858.95;;
17197;SDS011;8715;51.010;6.812;2023-09-08T02:26:43;931.25;;;863.05;;
17197;SDS011;8715;51.010;6.812;2023-09-08T02:29:29;925.03;;;856.95;;
17197;SDS011;8715;51.010;6.812;2023-09-08T02:32:15;926.83;;;858.80;;
17197;SDS011;8715;51.010;6.812;2023-09-08T02:35:01;928.95;;;860.72;;
17197;SDS011;8715;51.010;6.812;2023-09-08T02:37:46;924.97;;;856.97;;
17197;SDS011;8715;51.010;6.812;2023-09-08T02:40:32;923.67;;;855.97;;
17197;SDS011;8715;51.010;6.812;2023-09-08T02:43:17;925.00;;;857.13;;
17197;SDS011;8715;51.010;6.812;2023-09-08T02:46:03;927.25;;;859.28;;
17197;SDS011;8715;51.010;6.812;2023-09-08T02:48:50;926.08;;;857.83;;
17197;SDS011;8715;51.010;6.812;2023-09-08T02:51:36;926.08;;;858.40;;
17197;SDS011;8715;51.010;6.812;2023-09-08T02:54:21;925.58;;;857.65;;
17197;SDS011;8715;51.010;6.812;2023-09-08T02:57:06;924.88;;;857.42;;
17197;SDS011;8715;51.010;6.812;2023-09-08T02:59:52;924.95;;;857.40;;
17197;SDS011;8715;51.010;6.812;2023-09-08T03:02:40;921.42;;;854.08;;
17197;SDS011;8715;51.010;6.812;2023-09-08T03:05:26;925.72;;;858.25;;
17197;SDS011;8715;51.010;6.812;2023-09-08T03:08:12;922.50;;;855.47;;
17197;SDS011;8715;51.010;6.812;2023-09-08T03:10:58;923.90;;;856.78;;
17197;SDS011;8715;51.010;6.812;2023-09-08T03:13:43;924.22;;;856.85;;
17197;SDS011;8715;51.010;6.812;2023-09-08T03:16:28;920.53;;;853.15;;
17197;SDS011;8715;51.010;6.812;2023-09-08T03:19:14;926.03;;;858.67;;
17197;SDS011;8715;51.010;6.812;2023-09-08T03:22:00;926.15;;;858.75;;
17197;SDS011;8715;51.010;6.812;2023-09-08T03:24:46;921.80;;;854.63;;
17197;SDS011;8715;51.010;6.812;2023-09-08T03:27:31;921.35;;;853.55;;
17197;SDS011;8715;51.010;6.812;2023-09-08T03:30:16;918.38;;;851.78;;
17197;SDS011;8715;51.010;6.812;2023-09-08T03:33:01;922.88;;;856.15;;
17197;SDS011;8715;51.010;6.812;2023-09-08T03:35:47;920.97;;;854.25;;
17197;SDS011;8715;51.010;6.812;2023-09-08T03:38:33;920.95;;;854.20;;
17197;SDS011;8715;51.010;6.812;2023-09-08T03:41:20;923.05;;;856.10;;
17197;SDS011;8715;51.010;6.812;2023-09-08T03:44:06;924.15;;;857.22;;
17197;SDS011;8715;51.010;6.812;2023-09-08T03:46:51;923.08;;;856.40;;
17197;SDS011;8715;51.010;6.812;2023-09-08T03:49:36;922.95;;;856.30;;
17197;SDS011;8715;51.010;6.812;2023-09-08T03:52:22;918.58;;;852.60;;
17197;SDS011;8715;51.010;6.812;2023-09-08T03:55:09;922.08;;;855.55;;
17197;SDS011;8715;51.010;6.812;2023-09-08T03:57:55;921.00;;;854.85;;
17197;SDS011;8715;51.010;6.812;2023-09-08T04:00:40;919.92;;;853.58;;
17197;SDS011;8715;51.010;6.812;2023-09-08T04:03:26;921.03;;;854.70;;
17197;SDS011;8715;51.010;6.812;2023-09-08T04:06:11;920.35;;;854.10;;
17197;SDS011;8715;51.010;6.812;2023-09-08T04:08:57;915.42;;;849.17;;
17197;SDS011;8715;51.010;6.812;2023-09-08T04:11:43;919.25;;;853.25;;
17197;SDS011;8715;51.010;6.812;2023-09-08T04:14:29;919.17;;;853.05;;
17197;SDS011;8715;51.010;6.812;2023-09-08T04:17:14;915.45;;;849.70;;
17197;SDS011;8715;51.010;6.812;2023-09-08T04:19:59;916.97;;;850.88;;
17197;SDS011;8715;51.010;6.812;2023-09-08T04:22:44;916.80;;;850.83;;
17197;SDS011;8715;51.010;6.812;2023-09-08T04:25:30;925.08;;;858.65;;
17197;SDS011;8715;51.010;6.812;2023-09-08T04:28:17;920.15;;;854.17;;
17197;SDS011;8715;51.010;6.812;2023-09-08T04:31:02;915.47;;;849.97;;
17197;SDS011;8715;51.010;6.812;2023-09-08T04:33:48;917.40;;;851.90;;
17197;SDS011;8715;51.010;6.812;2023-09-08T04:36:33;920.90;;;854.78;;
17197;SDS011;8715;51.010;6.812;2023-09-08T04:39:19;918.35;;;852.25;;
17197;SDS011;8715;51.010;6.812;2023-09-08T04:42:04;920.92;;;854.85;;
17197;SDS011;8715;51.010;6.812;2023-09-08T04:44:51;921.33;;;855.00;;
17197;SDS011;8715;51.010;6.812;2023-09-08T04:47:36;919.50;;;853.67;;
17197;SDS011;8715;51.010;6.812;2023-09-08T04:50:22;914.25;;;848.67;;
17197;SDS011;8715;51.010;6.812;2023-09-08T04:53:07;919.50;;;853.22;;
17197;SDS011;8715;51.010;6.812;2023-09-08T04:55:52;917.38;;;851.88;;
17197;SDS011;8715;51.010;6.812;2023-09-08T04:58:38;917.70;;;851.97;;
17197;SDS011;8715;51.010;6.812;2023-09-08T05:01:24;918.90;;;853.00;;
17197;SDS011;8715;51.010;6.812;2023-09-08T05:04:09;918.45;;;852.47;;
17197;SDS011;8715;51.010;6.812;2023-09-08T05:06:56;919.15;;;853.15;;
17197;SDS011;8715;51.010;6.812;2023-09-08T05:09:41;917.63;;;851.40;;
17197;SDS011;8715;51.010;6.812;2023-09-08T05:12:26;921.85;;;855.10;;
17197;SDS011;8715;51.010;6.812;2023-09-08T05:15:12;928.33;;;860.03;;
17197;SDS011;8715;51.010;6.812;2023-09-08T05:18:00;934.25;;;864.58;;
17197;SDS011;8715;51.010;6.812;2023-09-08T05:20:47;936.63;;;865.25;;
17197;SDS011;8715;51.010;6.812;2023-09-08T05:23:33;944.83;;;871.72;;
17197;SDS011;8715;51.010;6.812;2023-09-08T05:26:18;949.35;;;874.60;;
17197;SDS011;8715;51.010;6.812;2023-09-08T05:29:03;955.40;;;879.25;;
17197;SDS011;8715;51.010;6.812;2023-09-08T05:31:49;960.95;;;883.40;;
17197;SDS011;8715;51.010;6.812;2023-09-08T05:34:37;962.65;;;883.72;;
17197;SDS011;8715;51.010;6.812;2023-09-08T05:37:22;968.88;;;888.67;;
17197;SDS011;8715;51.010;6.812;2023-09-08T05:40:08;970.75;;;888.97;;
17197;SDS011;8715;51.010;6.812;2023-09-08T05:42:53;977.38;;;894.15;;
17197;SDS011;8715;51.010;6.812;2023-09-08T05:45:39;979.45;;;894.85;;
17197;SDS011;8715;51.010;6.812;2023-09-08T05:48:24;981.40;;;895.65;;
17197;SDS011;8715;51.010;6.812;2023-09-08T05:51:10;984.80;;;898.28;;
17197;SDS011;8715;51.010;6.812;2023-09-08T05:53:56;985.63;;;898.22;;
17197;SDS011;8715;51.010;6.812;2023-09-08T05:56:41;987.95;;;899.67;;
17197;SDS011;8715;51.010;6.812;2023-09-08T05:59:26;993.97;;;903.85;;
17197;SDS011;8715;51.010;6.812;2023-09-08T06:02:11;995.45;;;905.03;;
17197;SDS011;8715;51.010;6.812;2023-09-08T06:04:57;995.20;;;903.85;;
17197;SDS011;8715;51.010;6.812;2023-09-08T06:07:43;1000.05;;;907.95;;
17197;SDS011;8715;51.010;6.812;2023-09-08T06:10:29;999.33;;;907.10;;
17197;SDS011;8715;51.010;6.812;2023-09-08T06:13:14;998.92;;;906.63;;
17197;SDS011;8715;51.010;6.812;2023-09-08T06:15:59;1003.28;;;910.08;;
17197;SDS011;8715;51.010;6.812;2023-09-08T06:18:45;1004.60;;;910.90;;
17197;SDS011;8715;51.010;6.812;2023-09-08T06:21:30;1002.53;;;907.88;;
17197;SDS011;8715;51.010;6.812;2023-09-08T06:24:17;1006.45;;;911.50;;
17197;SDS011;8715;51.010;6.812;2023-09-08T06:27:02;1005.55;;;910.55;;
17197;SDS011;8715;51.010;6.812;2023-09-08T06:29:47;1005.03;;;910.53;;
17197;SDS011;8715;51.010;6.812;2023-09-08T06:32:33;1001.72;;;908.35;;
17197;SDS011;8715;51.010;6.812;2023-09-08T06:35:18;998.90;;;906.50;;
17197;SDS011;8715;51.010;6.812;2023-09-08T06:38:03;998.03;;;906.42;;
17197;SDS011;8715;51.010;6.812;2023-09-08T06:40:50;992.10;;;902.38;;
17197;SDS011;8715;51.010;6.812;2023-09-08T06:43:36;987.75;;;899.38;;
17197;SDS011;8715;51.010;6.812;2023-09-08T06:46:22;985.40;;;898.47;;
17197;SDS011;8715;51.010;6.812;2023-09-08T06:49:07;983.10;;;897.30;;
17197;SDS011;8715;51.010;6.812;2023-09-08T06:51:52;981.05;;;896.13;;
17197;SDS011;8715;51.010;6.812;2023-09-08T06:54:37;975.40;;;891.35;;
17197;SDS011;8715;51.010;6.812;2023-09-08T06:57:24;974.67;;;891.63;;
17197;SDS011;8715;51.010;6.812;2023-09-08T07:00:10;972.78;;;890.72;;
17197;SDS011;8715;51.010;6.812;2023-09-08T07:02:56;968.90;;;887.70;;
17197;SDS011;8715;51.010;6.812;2023-09-08T07:05:41;967.03;;;886.40;;
17197;SDS011;8715;51.010;6.812;2023-09-08T07:08:28;963.88;;;883.42;;
17197;SDS011;8715;51.010;6.812;2023-09-08T07:11:13;966.40;;;886.15;;
17197;SDS011;8715;51.010;6.812;2023-09-08T07:14:00;961.60;;;882.03;;
17197;SDS011;8715;51.010;6.812;2023-09-08T07:16:45;963.05;;;883.70;;
17197;SDS011;8715;51.010;6.812;2023-09-08T07:19:30;959.80;;;880.85;;
17197;SDS011;8715;51.010;6.812;2023-09-08T07:22:15;960.03;;;880.38;;
17197;SDS011;8715;51.010;6.812;2023-09-08T07:25:01;962.40;;;883.22;;
17197;SDS011;8715;51.010;6.812;2023-09-08T07:27:46;962.58;;;883.28;;
17197;SDS011;8715;51.010;6.812;2023-09-08T07:30:33;968.42;;;888.28;;
17197;SDS011;8715;51.010;6.812;2023-09-08T07:33:18;965.15;;;885.53;;
17197;SDS011;8715;51.010;6.812;2023-09-08T07:36:04;969.60;;;889.28;;
17197;SDS011;8715;51.010;6.812;2023-09-08T07:38:49;963.70;;;883.72;;
17197;SDS011;8715;51.010;6.812;2023-09-08T07:41:35;969.95;;;889.60;;
17197;SDS011;8715;51.010;6.812;2023-09-08T07:44:23;963.97;;;884.00;;
17197;SDS011;8715;51.010;6.812;2023-09-08T07:47:09;966.47;;;885.92;;
17197;SDS011;8715;51.010;6.812;2023-09-08T07:50:15;966.88;;;886.05;;
17197;SDS011;8715;51.010;6.812;2023-09-08T07:53:05;968.83;;;887.30;;
17197;SDS011;8715;51.010;6.812;2023-09-08T07:55:51;970.00;;;888.70;;
17197;SDS011;8715;51.010;6.812;2023-09-08T07:58:36;964.88;;;884.08;;
17197;SDS011;8715;51.010;6.812;2023-09-08T08:01:22;967.83;;;886.88;;
17197;SDS011;8715;51.010;6.812;2023-09-08T08:04:08;967.30;;;885.92;;
17197;SDS011;8715;51.010;6.812;2023-09-08T08:06:54;968.42;;;887.33;;
17197;SDS011;8715;51.010;6.812;2023-09-08T08:09:40;968.92;;;887.33;;
17197;SDS011;8715;51.010;6.812;2023-09-08T08:12:25;971.95;;;889.83;;
17197;SDS011;8715;51.010;6.812;2023-09-08T08:15:11;970.53;;;888.25;;
17197;SDS011;8715;51.010;6.812;2023-09-08T08:17:56;973.38;;;890.67;;
17197;SDS011;8715;51.010;6.812;2023-09-08T08:20:41;972.28;;;889.58;;
17197;SDS011;8715;51.010;6.812;2023-09-08T08:23:28;976.38;;;893.72;;
17197;SDS011;8715;51.010;6.812;2023-09-08T08:26:13;973.05;;;890.45;;
17197;SDS011;8715;51.010;6.812;2023-09-08T08:29:00;973.72;;;891.08;;
17197;SDS011;8715;51.010;6.812;2023-09-08T08:31:45;975.42;;;892.25;;
17197;SDS011;8715;51.010;6.812;2023-09-08T08:34:30;971.88;;;889.10;;
17197;SDS011;8715;51.010;6.812;2023-09-08T08:37:16;975.13;;;891.92;;
17197;SDS011;8715;51.010;6.812;2023-09-08T08:40:03;977.03;;;893.40;;
17197;SDS011;8715;51.010;6.812;2023-09-08T08:42:50;978.70;;;895.05;;
17197;SDS011;8715;51.010;6.812;2023-09-08T08:45:41;979.95;;;895.72;;
17197;SDS011;8715;51.010;6.812;2023-09-08T08:48:27;977.60;;;893.88;;
17197;SDS011;8715;51.010;6.812;2023-09-08T08:51:14;975.35;;;891.22;;
17197;SDS011;8715;51.010;6.812;2023-09-08T08:54:01;980.00;;;895.85;;
17197;SDS011;8715;51.010;6.812;2023-09-08T08:56:49;974.65;;;890.50;;
17197;SDS011;8715;51.010;6.812;2023-09-08T08:59:34;977.03;;;892.65;;
17197;SDS011;8715;51.010;6.812;2023-09-08T09:02:20;980.95;;;896.28;;
17197;SDS011;8715;51.010;6.812;2023-09-08T09:05:06;980.97;;;895.83;;
17197;SDS011;8715;51.010;6.812;2023-09-08T09:07:52;984.10;;;898.35;;
17197;SDS011;8715;51.010;6.812;2023-09-08T09:10:38;979.63;;;894.10;;
17197;SDS011;8715;51.010;6.812;2023-09-08T09:13:25;982.03;;;896.00;;
17197;SDS011;8715;51.010;6.812;2023-09-08T09:16:10;979.35;;;893.58;;
17197;SDS011;8715;51.010;6.812;2023-09-08T09:18:56;979.28;;;893.53;;
17197;SDS011;8715;51.010;6.812;2023-09-08T09:21:44;981.10;;;895.53;;
17197;SDS011;8715;51.010;6.812;2023-09-08T09:24:31;983.80;;;897.85;;
17197;SDS011;8715;51.010;6.812;2023-09-08T09:27:18;981.60;;;895.92;;
17197;SDS011;8715;51.010;6.812;2023-09-08T09:30:05;981.28;;;895.70;;
17197;SDS011;8715;51.010;6.812;2023-09-08T09:32:58;979.88;;;894.28;;
17197;SDS011;8715;51.010;6.812;2023-09-08T09:38:30;984.75;;;898.63;;
17197;SDS011;8715;51.010;6.812;2023-09-08T09:41:16;982.75;;;896.58;;
17197;SDS011;8715;51.010;6.812;2023-09-08T09:44:01;984.55;;;897.78;;
17197;SDS011;8715;51.010;6.812;2023-09-08T09:46:51;984.35;;;897.40;;
17197;SDS011;8715;51.010;6.812;2023-09-08T09:49:41;987.28;;;899.85;;
17197;SDS011;8715;51.010;6.812;2023-09-08T09:52:27;983.83;;;896.63;;
17197;SDS011;8715;51.010;6.812;2023-09-08T09:55:15;984.75;;;897.47;;
17197;SDS011;8715;51.010;6.812;2023-09-08T09:58:00;985.08;;;897.65;;
17197;SDS011;8715;51.010;6.812;2023-09-08T10:00:47;986.08;;;899.08;;
17197;SDS011;8715;51.010;6.812;2023-09-08T10:03:34;988.08;;;900.63;;
17197;SDS011;8715;51.010;6.812;2023-09-08T10:06:19;986.47;;;899.13;;
17197;SDS011;8715;51.010;6.812;2023-09-08T10:09:06;986.28;;;898.53;;
17197;SDS011;8715;51.010;6.812;2023-09-08T10:11:56;986.28;;;898.65;;
17197;SDS011;8715;51.010;6.812;2023-09-08T10:14:44;988.97;;;900.80;;
17197;SDS011;8715;51.010;6.812;2023-09-08T10:17:30;986.47;;;898.85;;
17197;SDS011;8715;51.010;6.812;2023-09-08T10:20:16;990.13;;;902.00;;
17197;SDS011;8715;51.010;6.812;2023-09-08T10:25:50;991.83;;;903.40;;
17197;SDS011;8715;51.010;6.812;2023-09-08T10:28:38;984.75;;;896.53;;
17197;SDS011;8715;51.010;6.812;2023-09-08T10:31:24;991.33;;;902.28;;
17197;SDS011;8715;51.010;6.812;2023-09-08T10:34:10;989.97;;;901.05;;
17197;SDS011;8715;51.010;6.812;2023-09-08T10:36:56;990.42;;;901.08;;
17197;SDS011;8715;51.010;6.812;2023-09-08T10:39:42;993.40;;;903.42;;
17197;SDS011;8715;51.010;6.812;2023-09-08T10:42:27;992.53;;;902.67;;
17197;SDS011;8715;51.010;6.812;2023-09-08T10:45:17;994.65;;;904.25;;
17197;SDS011;8715;51.010;6.812;2023-09-08T10:48:04;991.22;;;901.33;;
17197;SDS011;8715;51.010;6.812;2023-09-08T10:50:51;992.92;;;902.65;;
17197;SDS011;8715;51.010;6.812;2023-09-08T10:53:37;993.97;;;903.80;;
17197;SDS011;8715;51.010;6.812;2023-09-08T10:56:26;992.22;;;901.83;;
17197;SDS011;8715;51.010;6.812;2023-09-08T10:59:13;994.80;;;903.85;;
17197;SDS011;8715;51.010;6.812;2023-09-08T11:02:01;993.35;;;902.70;;
17197;SDS011;8715;51.010;6.812;2023-09-08T11:04:48;996.08;;;904.80;;
17197;SDS011;8715;51.010;6.812;2023-09-08T11:07:33;992.97;;;902.05;;
17197;SDS011;8715;51.010;6.812;2023-09-08T11:10:21;992.72;;;901.80;;
17197;SDS011;8715;51.010;6.812;2023-09-08T11:13:06;993.92;;;903.50;;
17197;SDS011;8715;51.010;6.812;2023-09-08T11:15:52;994.78;;;904.17;;
17197;SDS011;8715;51.010;6.812;2023-09-08T11:18:37;993.70;;;903.03;;
17197;SDS011;8715;51.010;6.812;2023-09-08T11:21:22;994.03;;;903.13;;
17197;SDS011;8715;51.010;6.812;2023-09-08T11:24:08;995.30;;;904.38;;
17197;SDS011;8715;51.010;6.812;2023-09-08T11:26:55;995.60;;;904.33;;
17197;SDS011;8715;51.010;6.812;2023-09-08T11:29:40;998.15;;;906.10;;
17197;SDS011;8715;51.010;6.812;2023-09-08T11:32:31;997.90;;;906.10;;
17197;SDS011;8715;51.010;6.812;2023-09-08T11:35:16;997.03;;;905.28;;
17197;SDS011;8715;51.010;6.812;2023-09-08T11:38:04;996.70;;;905.08;;
17197;SDS011;8715;51.010;6.812;2023-09-08T11:40:50;996.53;;;904.65;;
17197;SDS011;8715;51.010;6.812;2023-09-08T11:43:36;996.67;;;905.05;;
17197;SDS011;8715;51.010;6.812;2023-09-08T11:46:21;993.70;;;902.28;;
17197;SDS011;8715;51.010;6.812;2023-09-08T11:49:07;998.67;;;907.03;;
17197;SDS011;8715;51.010;6.812;2023-09-08T11:51:52;995.40;;;903.90;;
17197;SDS011;8715;51.010;6.812;2023-09-08T11:54:37;997.53;;;905.80;;
17197;SDS011;8715;51.010;6.812;2023-09-08T11:57:23;999.15;;;906.92;;
17197;SDS011;8715;51.010;6.812;2023-09-08T12:00:10;997.95;;;905.83;;
17197;SDS011;8715;51.010;6.812;2023-09-08T12:03:10;994.97;;;903.42;;
17197;SDS011;8715;51.010;6.812;2023-09-08T12:05:56;996.67;;;905.00;;
17197;SDS011;8715;51.010;6.812;2023-09-08T12:08:42;997.60;;;905.50;;
17197;SDS011;8715;51.010;6.812;2023-09-08T12:11:31;995.75;;;904.13;;
17197;SDS011;8715;51.010;6.812;2023-09-08T12:14:18;994.30;;;902.88;;
17197;SDS011;8715;51.010;6.812;2023-09-08T12:17:06;1000.08;;;907.85;;
17197;SDS011;8715;51.010;6.812;2023-09-08T12:19:51;999.95;;;907.85;;
17197;SDS011;8715;51.010;6.812;2023-09-08T12:22:37;1003.42;;;910.53;;
17197;SDS011;8715;51.010;6.812;2023-09-08T12:25:25;999.38;;;906.47;;
17197;SDS011;8715;51.010;6.812;2023-09-08T12:28:11;997.38;;;905.08;;
17197;SDS011;8715;51.010;6.812;2023-09-08T12:30:57;1002.90;;;910.17;;
17197;SDS011;8715;51.010;6.812;2023-09-08T12:33:44;1003.70;;;910.45;;
17197;SDS011;8715;51.010;6.812;2023-09-08T12:36:29;998.47;;;905.63;;
17197;SDS011;8715;51.010;6.812;2023-09-08T12:39:15;998.58;;;905.92;;
17197;SDS011;8715;51.010;6.812;2023-09-08T12:42:00;998.35;;;906.00;;
17197;SDS011;8715;51.010;6.812;2023-09-08T12:44:46;999.00;;;906.13;;
17197;SDS011;8715;51.010;6.812;2023-09-08T12:47:32;1001.78;;;908.92;;
17197;SDS011;8715;51.010;6.812;2023-09-08T12:50:20;1002.78;;;910.08;;
17197;SDS011;8715;51.010;6.812;2023-09-08T12:53:05;998.53;;;906.00;;
17197;SDS011;8715;51.010;6.812;2023-09-08T12:55:51;1002.70;;;909.60;;
17197;SDS011;8715;51.010;6.812;2023-09-08T12:58:37;1001.10;;;908.00;;
17197;SDS011;8715;51.010;6.812;2023-09-08T13:01:22;1002.85;;;909.53;;
17197;SDS011;8715;51.010;6.812;2023-09-08T13:04:08;1000.97;;;907.90;;
17197;SDS011;8715;51.010;6.812;2023-09-08T13:06:54;1001.28;;;908.40;;
17197;SDS011;8715;51.010;6.812;2023-09-08T13:09:42;999.50;;;907.13;;
17197;SDS011;8715;51.010;6.812;2023-09-08T13:12:27;1000.53;;;907.65;;
17197;SDS011;8715;51.010;6.812;2023-09-08T13:15:12;996.70;;;904.53;;
17197;SDS011;8715;51.010;6.812;2023-09-08T13:17:57;997.30;;;904.95;;
17197;SDS011;8715;51.010;6.812;2023-09-08T13:20:43;999.22;;;906.58;;
17197;SDS011;8715;51.010;6.812;2023-09-08T13:23:30;998.47;;;905.85;;
17197;SDS011;8715;51.010;6.812;2023-09-08T13:26:15;1000.05;;;907.47;;
17197;SDS011;8715;51.010;6.812;2023-09-08T13:29:00;1000.15;;;907.83;;
17197;SDS011;8715;51.010;6.812;2023-09-08T13:31:46;999.17;;;906.50;;
17197;SDS011;8715;51.010;6.812;2023-09-08T13:34:32;997.75;;;905.45;;
17197;SDS011;8715;51.010;6.812;2023-09-08T13:37:17;1000.50;;;908.05;;
17197;SDS011;8715;51.010;6.812;2023-09-08T13:40:05;1000.28;;;907.75;;
17197;SDS011;8715;51.010;6.812;2023-09-08T13:42:51;1001.58;;;908.75;;
17197;SDS011;8715;51.010;6.812;2023-09-08T13:45:37;997.42;;;905.30;;
17197;SDS011;8715;51.010;6.812;2023-09-08T13:48:22;1000.65;;;907.60;;
17197;SDS011;8715;51.010;6.812;2023-09-08T13:51:07;998.90;;;905.95;;
17197;SDS011;8715;51.010;6.812;2023-09-08T13:53:53;998.90;;;906.13;;
17197;SDS011;8715;51.010;6.812;2023-09-08T13:56:40;1002.53;;;909.50;;
17197;SDS011;8715;51.010;6.812;2023-09-08T13:59:26;1001.75;;;908.42;;
17197;SDS011;8715;51.010;6.812;2023-09-08T14:02:12;1003.53;;;909.85;;
17197;SDS011;8715;51.010;6.812;2023-09-08T14:04:57;1004.17;;;910.47;;
17197;SDS011;8715;51.010;6.812;2023-09-08T14:07:43;1002.60;;;909.30;;
17197;SDS011;8715;51.010;6.812;2023-09-08T14:10:28;1001.03;;;907.78;;
17197;SDS011;8715;51.010;6.812;2023-09-08T14:13:14;1000.15;;;907.20;;
17197;SDS011;8715;51.010;6.812;2023-09-08T14:16:00;1002.42;;;909.53;;
17197;SDS011;8715;51.010;6.812;2023-09-08T14:18:45;999.33;;;906.55;;
17197;SDS011;8715;51.010;6.812;2023-09-08T14:21:31;1001.13;;;907.95;;
17197;SDS011;8715;51.010;6.812;2023-09-08T14:24:16;1002.67;;;909.47;;
17197;SDS011;8715;51.010;6.812;2023-09-08T14:27:02;1002.90;;;909.72;;
17197;SDS011;8715;51.010;6.812;2023-09-08T14:29:49;1004.05;;;910.65;;
17197;SDS011;8715;51.010;6.812;2023-09-08T14:32:34;999.60;;;906.70;;
17197;SDS011;8715;51.010;6.812;2023-09-08T14:35:19;1000.65;;;907.63;;
17197;SDS011;8715;51.010;6.812;2023-09-08T14:38:04;1000.50;;;907.78;;
17197;SDS011;8715;51.010;6.812;2023-09-08T14:40:53;999.22;;;906.63;;
17197;SDS011;8715;51.010;6.812;2023-09-08T14:43:39;999.05;;;906.35;;
17197;SDS011;8715;51.010;6.812;2023-09-08T14:46:25;1003.90;;;911.17;;
17197;SDS011;8715;51.010;6.812;2023-09-08T14:49:11;997.88;;;905.42;;
17197;SDS011;8715;51.010;6.812;2023-09-08T14:51:58;1002.30;;;909.63;;
17197;SDS011;8715;51.010;6.812;2023-09-08T14:54:43;1003.33;;;910.35;;
17197;SDS011;8715;51.010;6.812;2023-09-08T14:57:29;997.15;;;904.85;;
17197;SDS011;8715;51.010;6.812;2023-09-08T15:00:14;999.70;;;907.00;;
17197;SDS011;8715;51.010;6.812;2023-09-08T15:03:01;998.67;;;906.25;;
17197;SDS011;8715;51.010;6.812;2023-09-08T15:05:48;998.65;;;906.60;;
17197;SDS011;8715;51.010;6.812;2023-09-08T15:08:33;998.08;;;905.90;;
17197;SDS011;8715;51.010;6.812;2023-09-08T15:11:19;1001.05;;;908.53;;
17197;SDS011;8715;51.010;6.812;2023-09-08T15:14:04;1001.83;;;909.05;;
17197;SDS011;8715;51.010;6.812;2023-09-08T15:16:49;994.92;;;903.15;;
17197;SDS011;8715;51.010;6.812;2023-09-08T15:19:36;998.28;;;906.00;;
17197;SDS011;8715;51.010;6.812;2023-09-08T15:22:21;999.92;;;907.38;;
17197;SDS011;8715;51.010;6.812;2023-09-08T15:25:07;1001.60;;;909.20;;
17197;SDS011;8715;51.010;6.812;2023-09-08T15:27:53;1000.03;;;907.75;;
17197;SDS011;8715;51.010;6.812;2023-09-08T15:30:38;1001.78;;;909.47;;
17197;SDS011;8715;51.010;6.812;2023-09-08T15:33:23;999.53;;;907.30;;
17197;SDS011;8715;51.010;6.812;2023-09-08T15:36:10;999.63;;;907.13;;
17197;SDS011;8715;51.010;6.812;2023-09-08T15:38:55;998.20;;;906.00;;
17197;SDS011;8715;51.010;6.812;2023-09-08T15:41:40;995.80;;;903.90;;
17197;SDS011;8715;51.010;6.812;2023-09-08T15:44:26;1000.13;;;907.78;;
17197;SDS011;8715;51.010;6.812;2023-09-08T15:47:11;997.63;;;905.72;;
17197;SDS011;8715;51.010;6.812;2023-09-08T15:49:56;996.63;;;904.90;;
17197;SDS011;8715;51.010;6.812;2023-09-08T15:52:43;1001.83;;;909.65;;
17197;SDS011;8715;51.010;6.812;2023-09-08T15:55:28;997.50;;;905.47;;
17197;SDS011;8715;51.010;6.812;2023-09-08T15:58:14;997.70;;;905.97;;
17197;SDS011;8715;51.010;6.812;2023-09-08T16:00:59;996.78;;;905.13;;